createdAt,value
2023-01-02T00:02:04.353Z,8.10
2023-01-02T00:04:31.072Z,8.00
2023-01-02T00:06:57.882Z,8.00
2023-01-02T00:09:25.434Z,8.00
2023-01-02T00:11:52.162Z,8.00
2023-01-02T00:14:18.813Z,8.00
2023-01-02T00:16:45.448Z,8.00
2023-01-02T00:19:12.163Z,8.00
2023-01-02T00:21:38.804Z,8.00
2023-01-02T00:24:05.659Z,8.00
2023-01-02T00:26:32.476Z,8.00
2023-01-02T00:29:00.427Z,8.00
2023-01-02T00:31:27.240Z,8.00
2023-01-02T00:33:53.971Z,8.00
2023-01-02T00:36:20.834Z,8.00
2023-01-02T00:38:47.538Z,8.00
2023-01-02T00:41:14.223Z,8.10
2023-01-02T00:43:40.859Z,8.10
2023-01-02T00:46:11.490Z,8.10
2023-01-02T00:48:39.719Z,8.10
2023-01-02T00:51:06.596Z,8.10
2023-01-02T00:53:33.251Z,8.10
2023-01-02T00:56:00.102Z,8.10
2023-01-02T00:58:26.770Z,8.10
2023-01-02T01:00:53.487Z,8.10
2023-01-02T01:03:20.559Z,8.20
2023-01-02T01:05:47.279Z,8.20
2023-01-02T01:08:13.969Z,8.20
2023-01-02T01:10:40.663Z,8.20
2023-01-02T01:13:08.135Z,8.20
2023-01-02T01:15:35.387Z,8.20
2023-01-02T01:18:02.086Z,8.20
2023-01-02T01:20:28.884Z,8.20
2023-01-02T01:22:55.600Z,8.20
2023-01-02T01:25:22.463Z,8.20
2023-01-02T01:27:52.119Z,8.10
2023-01-02T01:30:18.772Z,8.20
2023-01-02T01:32:45.443Z,8.30
2023-01-02T01:35:12.216Z,8.20
2023-01-02T01:37:40.065Z,8.20
2023-01-02T01:40:07.648Z,8.20
2023-01-02T01:42:35.257Z,8.20
2023-01-02T01:45:02.003Z,8.20
2023-01-02T01:47:43.131Z,8.20
2023-01-02T01:50:16.683Z,8.20
2023-01-02T01:52:54.629Z,8.20
2023-01-02T01:55:26.335Z,8.20
2023-01-02T01:58:00.201Z,8.20
2023-01-02T02:00:27.207Z,8.20
2023-01-02T02:02:59.442Z,8.20
2023-01-02T02:05:29.394Z,8.20
2023-01-02T02:08:11.447Z,8.20
2023-01-02T02:10:38.645Z,8.20
2023-01-02T02:13:05.389Z,8.20
2023-01-02T02:16:15.650Z,8.20
2023-01-02T02:19:17.413Z,8.20
2023-01-02T02:21:56.157Z,8.30
2023-01-02T02:24:47.701Z,8.20
2023-01-02T02:27:45.125Z,8.20
2023-01-02T02:30:20.195Z,8.30
2023-01-02T02:33:16.596Z,8.20
2023-01-02T02:36:16.953Z,8.30
2023-01-02T02:39:10.777Z,8.30
2023-01-02T02:42:00.475Z,8.30
2023-01-02T02:44:57.579Z,8.30
2023-01-02T02:47:47.859Z,8.30
2023-01-02T02:50:30.052Z,8.30
2023-01-02T02:53:12.858Z,8.30
2023-01-02T02:55:47.748Z,8.30
2023-01-02T02:58:16.390Z,8.30
2023-01-02T03:00:43.088Z,8.30
2023-01-02T03:03:21.849Z,8.30
2023-01-02T03:06:13.744Z,8.30
2023-01-02T03:09:14.563Z,8.30
2023-01-02T03:11:46.934Z,8.30
2023-01-02T03:14:31.442Z,8.30
2023-01-02T03:17:04.139Z,8.30
2023-01-02T03:19:54.478Z,8.30
2023-01-02T03:22:26.636Z,8.30
2023-01-02T03:24:55.590Z,8.30
2023-01-02T03:27:29.444Z,8.30
2023-01-02T03:30:09.116Z,8.30
2023-01-02T03:32:41.282Z,8.30
2023-01-02T03:35:14.904Z,8.40
2023-01-02T03:37:48.501Z,8.40
2023-01-02T03:40:30.842Z,8.40
2023-01-02T03:43:04.330Z,8.30
2023-01-02T03:45:40.266Z,8.40
2023-01-02T03:48:33.295Z,8.30
2023-01-02T03:51:02.342Z,8.30
2023-01-02T03:53:31.902Z,8.30
2023-01-02T03:56:23.268Z,8.30
2023-01-02T03:59:06.371Z,8.30
2023-01-02T04:01:49.299Z,8.30
2023-01-02T04:04:51.929Z,8.30
2023-01-02T04:07:43.597Z,8.30
2023-01-02T04:10:12.788Z,8.30
2023-01-02T04:12:42.336Z,8.20
2023-01-02T04:15:12.319Z,8.20
2023-01-02T04:17:45.577Z,8.30
2023-01-02T04:20:24.057Z,8.20
2023-01-02T04:22:57.655Z,8.20
2023-01-02T04:25:31.740Z,8.20
2023-01-02T04:28:15.131Z,8.20
2023-01-02T04:30:45.882Z,8.20
2023-01-02T04:33:14.356Z,8.20
2023-01-02T04:35:41.074Z,8.30
2023-01-02T04:38:12.154Z,8.20
2023-01-02T04:40:38.995Z,8.20
2023-01-02T04:43:12.638Z,8.30
2023-01-02T04:45:39.316Z,8.30
2023-01-02T04:48:06.232Z,8.30
2023-01-02T04:50:32.957Z,8.20
2023-01-02T04:52:59.653Z,8.20
2023-01-02T04:55:26.310Z,8.20
2023-01-02T04:57:53.169Z,8.20
2023-01-02T05:00:19.933Z,8.20
2023-01-02T05:02:46.723Z,8.20
2023-01-02T05:05:13.524Z,8.20
2023-01-02T05:07:40.272Z,8.20
2023-01-02T05:10:07.809Z,8.20
2023-01-02T05:12:39.160Z,8.30
2023-01-02T05:15:07.735Z,8.30
2023-01-02T05:17:35.837Z,8.30
2023-01-02T05:20:03.706Z,8.30
2023-01-02T05:22:48.956Z,8.30
2023-01-02T05:25:15.763Z,8.40
2023-01-02T05:27:42.416Z,8.40
2023-01-02T05:30:10.200Z,8.40
2023-01-02T05:32:36.876Z,8.30
2023-01-02T05:35:03.932Z,8.30
2023-01-02T05:37:30.875Z,8.40
2023-01-02T05:39:57.669Z,8.30
2023-01-02T05:42:24.314Z,8.40
2023-01-02T05:44:51.323Z,8.40
2023-01-02T05:47:18.315Z,8.40
2023-01-02T05:49:44.990Z,8.50
2023-01-02T05:52:11.655Z,8.50
2023-01-02T05:54:38.489Z,8.50
2023-01-02T05:57:05.206Z,8.50
2023-01-02T05:59:35.953Z,8.50
2023-01-02T06:02:03.153Z,8.40
2023-01-02T06:04:30.014Z,8.40
2023-01-02T06:06:56.702Z,8.40
2023-01-02T06:09:23.572Z,8.40
2023-01-02T06:11:50.228Z,8.40
2023-01-02T06:14:16.874Z,8.40
2023-01-02T06:16:43.559Z,8.40
2023-01-02T06:19:10.841Z,8.40
2023-01-02T06:21:37.479Z,8.50
2023-01-02T06:24:04.523Z,8.40
2023-01-02T06:26:34.833Z,8.40
2023-01-02T06:29:02.804Z,8.40
2023-01-02T06:31:29.792Z,8.40
2023-01-02T06:33:58.732Z,8.30
2023-01-02T06:36:26.436Z,8.30
2023-01-02T06:38:53.257Z,8.30
2023-01-02T06:41:19.944Z,8.30
2023-01-02T06:43:48.624Z,8.30
2023-01-02T06:46:17.465Z,8.20
2023-01-02T06:48:44.894Z,8.30
2023-01-02T06:51:16.897Z,8.30
2023-01-02T06:53:44.944Z,8.30
2023-01-02T06:56:13.216Z,8.30
2023-01-02T06:58:40.146Z,8.30
2023-01-02T07:01:09.745Z,8.40
2023-01-02T07:03:36.934Z,8.40
2023-01-02T07:06:09.672Z,8.30
2023-01-02T07:08:37.011Z,8.30
2023-01-02T07:11:22.311Z,8.30
2023-01-02T07:13:51.275Z,8.30
2023-01-02T07:16:19.380Z,8.30
2023-01-02T07:18:46.991Z,8.30
2023-01-02T07:21:15.305Z,8.30
2023-01-02T07:23:42.577Z,8.30
2023-01-02T07:26:10.717Z,8.30
2023-01-02T07:28:38.321Z,8.30
2023-01-02T07:31:07.902Z,8.30
2023-01-02T07:33:35.055Z,8.20
2023-01-02T07:36:04.645Z,8.20
2023-01-02T07:38:31.669Z,8.20
2023-01-02T07:40:58.478Z,8.20
2023-01-02T07:43:25.436Z,8.10
2023-01-02T07:45:52.155Z,8.10
2023-01-02T07:48:19.477Z,8.00
2023-01-02T07:50:46.583Z,8.00
2023-01-02T07:53:13.266Z,8.00
2023-01-02T07:55:40.196Z,8.00
2023-01-02T07:58:06.878Z,8.00
2023-01-02T08:00:33.615Z,8.00
2023-01-02T08:03:01.120Z,7.90
2023-01-02T08:05:27.827Z,7.90
2023-01-02T08:07:54.516Z,7.90
2023-01-02T08:10:21.237Z,7.90
2023-01-02T08:12:47.890Z,7.90
2023-01-02T08:15:14.624Z,8.00
2023-01-02T08:17:41.646Z,8.00
2023-01-02T08:20:10.250Z,7.90
2023-01-02T08:22:37.630Z,8.00
2023-01-02T08:25:04.961Z,8.00
2023-01-02T08:27:32.002Z,8.00
2023-01-02T08:29:58.810Z,8.00
2023-01-02T08:32:25.591Z,8.00
2023-01-02T08:34:52.328Z,8.00
2023-01-02T08:37:19.570Z,8.00
2023-01-02T08:39:46.240Z,8.00
2023-01-02T08:42:13.012Z,8.00
2023-01-02T08:44:40.225Z,8.10
2023-01-02T08:47:06.930Z,8.10
2023-01-02T08:49:33.591Z,8.20
2023-01-02T08:52:00.288Z,8.20
2023-01-02T08:54:27.092Z,8.20
2023-01-02T08:56:53.853Z,8.20
2023-01-02T08:59:23.587Z,8.30
2023-01-02T09:01:50.920Z,8.20
2023-01-02T09:04:18.148Z,8.20
2023-01-02T09:06:45.432Z,8.20
2023-01-02T09:09:14.115Z,8.30
2023-01-02T09:11:46.728Z,8.30
2023-01-02T09:14:13.410Z,8.30
2023-01-02T09:16:40.232Z,8.30
2023-01-02T09:19:07.873Z,8.30
2023-01-02T09:21:34.703Z,8.40
2023-01-02T09:24:01.519Z,8.50
2023-01-02T09:26:28.280Z,8.50
2023-01-02T09:28:54.969Z,8.50
2023-01-02T09:31:22.182Z,8.50
2023-01-02T09:33:49.381Z,8.50
2023-01-02T09:36:18.541Z,8.50
2023-01-02T09:38:51.938Z,8.50
2023-01-02T09:41:21.629Z,8.50
2023-01-02T09:44:02.717Z,8.50
2023-01-02T09:46:40.286Z,8.50
2023-01-02T09:49:10.840Z,8.50
2023-01-02T09:51:38.095Z,8.60
2023-01-02T09:54:11.883Z,8.60
2023-01-02T09:56:42.265Z,8.60
2023-01-02T09:59:31.951Z,8.70
2023-01-02T10:02:32.574Z,8.70
2023-01-02T10:05:10.126Z,8.60
2023-01-02T10:08:00.432Z,8.60
2023-01-02T10:10:43.729Z,8.60
2023-01-02T10:13:44.327Z,8.60
2023-01-02T10:16:22.021Z,8.60
2023-01-02T10:18:52.698Z,8.60
2023-01-02T10:21:30.220Z,8.60
2023-01-02T10:24:05.501Z,8.60
2023-01-02T10:26:36.807Z,8.70
2023-01-02T10:29:28.513Z,8.70
2023-01-02T10:32:02.894Z,8.70
2023-01-02T10:34:46.099Z,8.80
2023-01-02T10:37:14.689Z,8.80
2023-01-02T10:39:46.393Z,8.80
2023-01-02T10:42:14.613Z,8.80
2023-01-02T10:44:43.343Z,8.90
2023-01-02T10:47:37.314Z,8.90
2023-01-02T10:50:08.488Z,9.00
2023-01-02T10:52:47.138Z,9.00
2023-01-02T10:55:13.990Z,9.10
2023-01-02T10:57:51.598Z,9.10
2023-01-02T11:00:22.520Z,9.10
2023-01-02T11:02:55.207Z,9.10
2023-01-02T11:05:26.470Z,9.10
2023-01-02T11:07:54.498Z,9.00
2023-01-02T11:10:33.273Z,9.00
2023-01-02T11:13:04.477Z,9.00
2023-01-02T11:15:34.871Z,9.00
2023-01-02T11:18:10.847Z,9.10
2023-01-02T11:20:38.250Z,9.10
2023-01-02T11:23:05.871Z,9.10
2023-01-02T11:25:41.641Z,9.10
2023-01-02T11:28:18.159Z,9.10
2023-01-02T11:30:49.214Z,9.00
2023-01-02T11:33:27.222Z,9.00
2023-01-02T11:35:58.357Z,9.00
2023-01-02T11:38:29.540Z,8.90
2023-01-02T11:41:02.517Z,8.90
2023-01-02T11:43:49.516Z,8.90
2023-01-02T11:46:52.761Z,9.00
2023-01-02T11:49:23.509Z,9.10
2023-01-02T11:51:59.450Z,9.10
2023-01-02T11:54:39.086Z,9.00
2023-01-02T11:57:18.961Z,9.10
2023-01-02T11:59:48.504Z,9.10
2023-01-02T12:02:27.086Z,9.10
2023-01-02T12:04:54.667Z,9.10
2023-01-02T12:07:26.806Z,9.20
2023-01-02T12:10:20.812Z,9.10
2023-01-02T12:13:11.623Z,9.00
2023-01-02T12:16:09.343Z,9.00
2023-01-02T12:18:50.615Z,8.90
2023-01-02T12:21:24.965Z,8.90
2023-01-02T12:24:20.450Z,8.90
2023-01-02T12:26:56.839Z,8.90
2023-01-02T12:29:48.094Z,9.00
2023-01-02T12:32:21.456Z,9.00
2023-01-02T12:35:08.143Z,9.10
2023-01-02T12:37:49.174Z,9.10
2023-01-02T12:40:33.193Z,9.20
2023-01-02T12:43:30.487Z,9.30
2023-01-02T12:46:24.147Z,9.30
2023-01-02T12:49:01.988Z,9.40
2023-01-02T12:51:50.055Z,9.40
2023-01-02T12:54:47.370Z,9.40
2023-01-02T12:57:35.323Z,9.40
2023-01-02T13:00:28.007Z,9.40
2023-01-02T13:03:22.402Z,9.40
2023-01-02T13:05:54.957Z,9.50
2023-01-02T13:08:32.489Z,9.50
2023-01-02T13:11:04.587Z,9.50
2023-01-02T13:13:35.283Z,9.50
2023-01-02T13:16:17.447Z,9.40
2023-01-02T13:19:14.441Z,9.70
2023-01-02T13:21:53.993Z,9.30
2023-01-02T13:24:26.295Z,9.20
2023-01-02T13:26:56.353Z,9.10
2023-01-02T13:29:40.731Z,9.00
2023-01-02T13:32:10.444Z,8.90
2023-01-02T13:34:48.230Z,8.80
2023-01-02T13:37:19.869Z,8.80
2023-01-02T13:39:51.572Z,8.80
2023-01-02T13:42:53.082Z,8.60
2023-01-02T13:45:34.734Z,8.60
2023-01-02T13:48:07.442Z,8.50
2023-01-02T13:50:36.750Z,8.40
2023-01-02T13:53:29.838Z,8.30
2023-01-02T13:56:06.758Z,8.30
2023-01-02T13:58:51.015Z,8.20
2023-01-02T14:01:24.031Z,8.20
2023-01-02T14:04:15.736Z,8.20
2023-01-02T14:06:50.058Z,8.20
2023-01-02T14:09:22.134Z,8.10
2023-01-02T14:12:02.760Z,8.10
2023-01-02T14:14:34.940Z,8.10
2023-01-02T14:17:30.836Z,8.10
2023-01-02T14:20:21.074Z,8.20
2023-01-02T14:22:50.958Z,8.20
2023-01-02T14:25:18.502Z,8.20
2023-01-02T14:27:59.605Z,8.20
2023-01-02T14:30:38.394Z,8.20
2023-01-02T14:33:07.897Z,8.10
2023-01-02T14:35:41.135Z,8.10
2023-01-02T14:38:20.861Z,8.00
2023-01-02T14:40:48.058Z,8.00
2023-01-02T14:43:31.844Z,8.00
2023-01-02T14:46:07.319Z,8.10
2023-01-02T14:48:58.613Z,8.10
2023-01-02T14:51:37.112Z,8.10
2023-01-02T14:54:13.362Z,8.00
2023-01-02T14:56:43.123Z,7.90
2023-01-02T14:59:18.512Z,7.90
2023-01-02T15:01:53.091Z,7.90
2023-01-02T15:04:40.915Z,7.80
2023-01-02T15:07:14.801Z,7.80
2023-01-02T15:09:45.954Z,7.70
2023-01-02T15:12:48.904Z,7.70
2023-01-02T15:15:18.584Z,7.70
2023-01-02T15:17:48.515Z,7.60
2023-01-02T15:20:23.986Z,7.60
2023-01-02T15:22:55.346Z,7.50
2023-01-02T15:25:38.070Z,7.50
2023-01-02T15:28:06.327Z,7.50
2023-01-02T15:30:38.647Z,7.50
2023-01-02T15:33:06.518Z,7.50
2023-01-02T15:35:36.160Z,7.40
2023-01-02T15:38:06.937Z,7.30
2023-01-02T15:40:35.791Z,7.20
2023-01-02T15:43:32.719Z,7.10
2023-01-02T15:45:59.562Z,6.90
2023-01-02T15:48:28.462Z,6.80
2023-01-02T15:50:59.676Z,6.70
2023-01-02T15:53:32.027Z,6.70
2023-01-02T15:55:58.942Z,6.60
2023-01-02T15:58:31.972Z,6.60
2023-01-02T16:01:15.823Z,6.50
2023-01-02T16:04:01.993Z,6.40
2023-01-02T16:06:34.655Z,6.40
2023-01-02T16:09:05.237Z,6.40
2023-01-02T16:11:43.494Z,6.40
2023-01-02T16:14:23.551Z,6.30
2023-01-02T16:17:06.081Z,6.20
2023-01-02T16:19:37.598Z,6.20
2023-01-02T16:22:07.271Z,6.10
2023-01-02T16:24:36.999Z,6.10
2023-01-02T16:27:04.770Z,6.10
2023-01-02T16:29:31.767Z,6.10
2023-01-02T16:32:00.943Z,6.10
2023-01-02T16:34:32.071Z,6.10
2023-01-02T16:37:28.609Z,6.10
2023-01-02T16:39:56.442Z,6.10
2023-01-02T16:42:37.796Z,6.20
2023-01-02T16:45:05.965Z,6.30
2023-01-02T16:47:45.968Z,6.40
2023-01-02T16:50:18.650Z,6.40
2023-01-02T16:52:46.040Z,6.30
2023-01-02T16:55:17.627Z,6.30
2023-01-02T16:57:44.690Z,6.30
2023-01-02T17:00:12.892Z,6.30
2023-01-02T17:02:39.889Z,6.30
2023-01-02T17:05:15.982Z,6.30
2023-01-02T17:07:42.673Z,6.30
2023-01-02T17:10:09.516Z,6.30
2023-01-02T17:12:43.121Z,6.30
2023-01-02T17:15:13.802Z,6.30
2023-01-02T17:17:40.946Z,6.30
2023-01-02T17:20:09.579Z,6.40
2023-01-02T17:22:37.425Z,6.50
2023-01-02T17:25:06.119Z,6.50
2023-01-02T17:27:32.946Z,6.50
2023-01-02T17:29:59.807Z,6.50
2023-01-02T17:32:26.589Z,6.50
2023-01-02T17:34:53.386Z,6.50
2023-01-02T17:37:22.871Z,6.50
2023-01-02T17:39:49.628Z,6.50
2023-01-02T17:42:16.513Z,6.50
2023-01-02T17:44:43.222Z,6.50
2023-01-02T17:47:48.341Z,6.50
2023-01-02T17:49:57.068Z,6.50
2023-01-02T17:52:24.222Z,6.50
2023-01-02T17:54:56.368Z,6.40
2023-01-02T17:57:23.924Z,6.40
2023-01-02T17:59:51.381Z,6.40
2023-01-02T18:02:20.619Z,6.40
2023-01-02T18:04:54.648Z,6.40
2023-01-02T18:07:22.150Z,6.40
2023-01-02T18:10:08.603Z,6.40
2023-01-02T18:12:36.526Z,6.40
2023-01-02T18:15:11.752Z,6.40
2023-01-02T18:17:38.453Z,6.50
2023-01-02T18:20:14.547Z,6.50
2023-01-02T18:22:48.487Z,6.50
2023-01-02T18:25:27.999Z,6.50
2023-01-02T18:28:27.293Z,6.40
2023-01-02T18:30:58.465Z,6.40
2023-01-02T18:33:27.152Z,6.30
2023-01-02T18:35:59.638Z,6.30
2023-01-02T18:38:33.790Z,6.20
2023-01-02T18:41:02.249Z,6.20
2023-01-02T18:43:33.772Z,6.10
2023-01-02T18:46:09.382Z,6.20
2023-01-02T18:48:36.182Z,6.20
2023-01-02T18:51:03.118Z,6.20
2023-01-02T18:53:35.613Z,6.90
2023-01-02T18:56:12.263Z,6.30
2023-01-02T18:58:43.438Z,6.30
2023-01-02T19:01:25.261Z,6.30
2023-01-02T19:03:58.083Z,6.30
2023-01-02T19:06:27.005Z,6.40
2023-01-02T19:08:55.633Z,6.30
2023-01-02T19:11:52.397Z,6.20
2023-01-02T19:14:23.421Z,6.10
2023-01-02T19:17:13.241Z,6.00
2023-01-02T19:19:40.908Z,5.90
2023-01-02T19:22:22.330Z,5.80
2023-01-02T19:24:49.454Z,5.80
2023-01-02T19:27:33.764Z,5.70
2023-01-02T19:30:00.516Z,5.70
2023-01-02T19:32:33.186Z,5.60
2023-01-02T19:35:04.598Z,5.60
2023-01-02T19:37:38.795Z,5.60
2023-01-02T19:40:18.363Z,5.50
2023-01-02T19:42:46.395Z,5.50
2023-01-02T19:45:20.059Z,5.50
2023-01-02T19:47:49.375Z,5.40
2023-01-02T19:50:22.145Z,5.40
2023-01-02T19:52:49.083Z,5.40
2023-01-02T19:55:17.861Z,5.40
2023-01-02T19:57:45.756Z,5.40
2023-01-02T20:00:14.374Z,5.40
2023-01-02T20:02:42.739Z,5.40
2023-01-02T20:05:11.878Z,5.40
2023-01-02T20:07:40.365Z,5.50
2023-01-02T20:10:08.091Z,5.50
2023-01-02T20:12:34.877Z,5.50
2023-01-02T20:15:09.101Z,5.50
2023-01-02T20:17:37.234Z,5.50
2023-01-02T20:20:05.856Z,5.50
2023-01-02T20:22:32.695Z,5.50
2023-01-02T20:24:59.620Z,5.40
2023-01-02T20:27:26.659Z,5.40
2023-01-02T20:29:55.378Z,5.40
2023-01-02T20:32:23.167Z,5.40
2023-01-02T20:34:50.642Z,5.40
2023-01-02T20:37:21.067Z,5.40
2023-01-02T20:39:49.899Z,5.40
2023-01-02T20:42:17.201Z,5.40
2023-01-02T20:44:44.327Z,5.40
2023-01-02T20:47:11.943Z,5.40
2023-01-02T20:49:39.469Z,5.50
2023-01-02T20:52:07.160Z,5.40
2023-01-02T20:54:34.481Z,6.60
2023-01-02T20:57:01.229Z,5.40
2023-01-02T20:59:28.161Z,5.50
2023-01-02T21:01:55.047Z,5.50
2023-01-02T21:04:28.019Z,5.50
2023-01-02T21:06:59.130Z,5.50
2023-01-02T21:09:25.760Z,5.50
2023-01-02T21:11:52.963Z,5.60
2023-01-02T21:14:19.768Z,5.60
2023-01-02T21:16:46.539Z,5.60
2023-01-02T21:19:13.226Z,5.60
2023-01-02T21:21:40.149Z,5.50
2023-01-02T21:24:07.430Z,5.40
2023-01-02T21:26:34.075Z,5.40
2023-01-02T21:29:03.093Z,5.40
2023-01-02T21:31:29.909Z,5.40
2023-01-02T21:33:56.775Z,5.40
2023-01-02T21:36:23.685Z,5.30
2023-01-02T21:38:50.459Z,5.30
2023-01-02T21:41:36.153Z,5.30
2023-01-02T21:44:02.812Z,5.20
2023-01-02T21:46:29.607Z,5.20
2023-01-02T21:48:56.486Z,5.20
2023-01-02T21:51:27.636Z,5.20
2023-01-02T21:53:57.424Z,5.10
2023-01-02T21:56:25.237Z,5.10
2023-01-02T21:58:51.896Z,5.00
2023-01-02T22:01:18.755Z,5.00
2023-01-02T22:03:45.581Z,5.00
2023-01-02T22:06:12.282Z,4.90
2023-01-02T22:08:39.075Z,4.90
2023-01-02T22:11:24.342Z,4.80
2023-01-02T22:13:51.044Z,4.80
2023-01-02T22:16:17.775Z,4.80
2023-01-02T22:18:44.439Z,4.80
2023-01-02T22:21:18.137Z,4.80
2023-01-02T22:23:44.803Z,4.70
2023-01-02T22:26:11.482Z,4.60
2023-01-02T22:28:38.410Z,4.50
2023-01-02T22:31:05.202Z,4.50
2023-01-02T22:33:31.937Z,4.40
2023-01-02T22:35:58.600Z,4.40
2023-01-02T22:38:25.272Z,4.50
2023-01-02T22:40:52.088Z,4.40
2023-01-02T22:43:24.343Z,4.40
2023-01-02T22:45:53.455Z,4.40
2023-01-02T22:48:20.236Z,4.40
2023-01-02T22:50:48.369Z,4.40
2023-01-02T22:53:18.704Z,4.40
2023-01-02T22:55:46.110Z,4.30
2023-01-02T22:58:13.221Z,4.30
2023-01-02T23:00:40.233Z,4.30
2023-01-02T23:03:14.676Z,4.30
2023-01-02T23:05:41.920Z,4.30
2023-01-02T23:08:08.995Z,4.30
2023-01-02T23:10:35.801Z,4.20
2023-01-02T23:13:02.820Z,4.20
2023-01-02T23:15:29.731Z,4.10
2023-01-02T23:18:14.815Z,4.10
2023-01-02T23:20:41.515Z,4.10
2023-01-02T23:23:08.256Z,4.10
2023-01-02T23:25:38.824Z,4.10
2023-01-02T23:28:05.610Z,4.20
2023-01-02T23:30:32.344Z,5.90
2023-01-02T23:32:59.232Z,4.30
2023-01-02T23:35:25.918Z,4.20
2023-01-02T23:37:52.573Z,4.10
2023-01-02T23:40:19.271Z,4.10
2023-01-02T23:42:45.940Z,4.00
2023-01-02T23:45:12.605Z,4.00
2023-01-02T23:47:39.268Z,4.00
2023-01-02T23:50:06.617Z,3.90
2023-01-02T23:52:33.318Z,3.90
2023-01-02T23:55:00.101Z,3.80
2023-01-02T23:57:26.779Z,3.70
2023-01-02T23:59:53.453Z,3.70
